Time;durP1;ratioP1;P1;durP2;ratioP2;P2;SDS_P1;SDS_P2;PMS_P1;PMS_P2;Temp;Humidity;BMP_temperature;BMP_pressure;BME280_temperature;BME280_humidity;BME280_pressure;Samples;Min_cycle;Max_cycle;Signal;HPM_P1;HPM_P2
2022/06/30 00:00:12;;;;;;;;;;;20.10;99.90;;;;;;4599678;19;19911;-33
2022/06/30 00:02:03;;;;;;;;;;;20.10;99.90;;;;;;4598666;19;20357;-33
2022/06/30 00:03:34;;;;;;;;;;;20.10;99.90;;;;;;4596185;19;19921;-32
2022/06/30 00:05:05;;;;;;;;;;;20.10;99.90;;;;;;4597927;19;19914;-36
2022/06/30 00:06:36;;;;;;;;;;;20.10;99.90;;;;;;4598203;19;19999;-35
2022/06/30 00:08:10;;;;;;;;;;;20.10;99.90;;;;;;4597449;19;19990;-35
2022/06/30 00:09:41;;;;;;;;;;;20.10;99.90;;;;;;4598528;19;20360;-30
2022/06/30 00:11:11;;;;;;;;;;;20.10;99.90;;;;;;4597840;19;19923;-37
2022/06/30 00:12:42;;;;;;;;;;;20.10;99.90;;;;;;4598732;19;19918;-35
2022/06/30 00:14:14;;;;;;;;;;;20.10;99.90;;;;;;4598409;19;19919;-37
2022/06/30 00:15:44;;;;;;;;;;;20.10;99.90;;;;;;4598491;19;19917;-35
2022/06/30 00:17:17;;;;;;;;;;;20.10;99.90;;;;;;4598032;19;19918;-32
2022/06/30 00:18:49;;;;;;;;;;;20.10;99.90;;;;;;4597517;19;20325;-37
2022/06/30 00:20:20;;;;;;;;;;;20.10;99.90;;;;;;4597623;19;19978;-31
2022/06/30 00:21:51;;;;;;;;;;;20.10;99.90;;;;;;4597317;19;19923;-33
2022/06/30 00:23:22;;;;;;;;;;;20.10;99.90;;;;;;4598418;19;20321;-31
2022/06/30 00:24:53;;;;;;;;;;;20.10;99.90;;;;;;4598442;19;19915;-32
2022/06/30 00:26:24;;;;;;;;;;;20.10;99.90;;;;;;4598481;19;19922;-38
2022/06/30 00:27:55;;;;;;;;;;;20.10;99.90;;;;;;4597465;19;19938;-33
2022/06/30 00:29:26;;;;;;;;;;;20.10;99.90;;;;;;4597640;19;19911;-33
2022/06/30 00:30:57;;;;;;;;;;;20.10;99.90;;;;;;4597762;19;19911;-38
2022/06/30 00:32:29;;;;;;;;;;;20.10;99.90;;;;;;4597096;19;19917;-35
2022/06/30 00:34:00;;;;;;;;;;;20.10;99.90;;;;;;4598197;19;20321;-37
2022/06/30 00:35:31;;;;;;;;;;;20.10;99.90;;;;;;4598828;19;19911;-33
2022/06/30 00:37:02;;;;;;;;;;;20.20;99.90;;;;;;4595707;19;19915;-35
2022/06/30 00:38:33;;;;;;;;;;;20.30;99.90;;;;;;4595891;19;20468;-31
2022/06/30 00:40:05;;;;;;;;;;;20.50;99.90;;;;;;4598086;19;19914;-33
2022/06/30 00:41:43;;;;;;;;;;;20.70;99.90;;;;;;4597990;19;20393;-32
2022/06/30 00:43:13;;;;;;;;;;;20.90;99.90;;;;;;4597887;19;19923;-40
2022/06/30 00:44:45;;;;;;;;;;;21.00;99.90;;;;;;4598108;19;19978;-34
2022/06/30 00:46:16;;;;;;;;;;;21.10;99.90;;;;;;4598493;19;20367;-32
2022/06/30 00:47:47;;;;;;;;;;;21.20;99.90;;;;;;4597890;19;19911;-34
2022/06/30 00:49:18;;;;;;;;;;;21.30;99.90;;;;;;4598025;19;19926;-36
2022/06/30 00:50:51;;;;;;;;;;;21.30;99.90;;;;;;4598227;19;19937;-38
2022/06/30 00:52:22;;;;;;;;;;;21.40;99.90;;;;;;4598298;19;20289;-37
2022/06/30 00:53:53;;;;;;;;;;;21.40;99.90;;;;;;4596628;19;19919;-35
2022/06/30 00:55:24;;;;;;;;;;;21.50;99.90;;;;;;4596573;19;19922;-36
2022/06/30 00:56:55;;;;;;;;;;;21.50;99.90;;;;;;4596958;19;19922;-32
2022/06/30 00:58:26;;;;;;;;;;;21.60;99.90;;;;;;4597029;19;19922;-35
2022/06/30 00:59:57;;;;;;;;;;;21.60;99.90;;;;;;4597213;19;19974;-35
2022/06/30 01:01:29;;;;;;;;;;;21.60;99.90;;;;;;4595401;19;19922;-34
2022/06/30 01:03:00;;;;;;;;;;;21.60;99.90;;;;;;4597159;19;20009;-33
2022/06/30 01:04:32;;;;;;;;;;;21.70;99.90;;;;;;4597019;19;20249;-35
2022/06/30 01:06:05;;;;;;;;;;;21.70;99.90;;;;;;4596336;19;19926;-33
2022/06/30 01:07:35;;;;;;;;;;;21.70;99.90;;;;;;4597154;19;19919;-33
2022/06/30 01:09:07;;;;;;;;;;;21.70;99.90;;;;;;4596511;19;20347;-37
2022/06/30 01:12:42;;;;;;;;;;;21.80;99.90;;;;;;4597262;19;19922;-34
2022/06/30 01:14:14;;;;;;;;;;;21.80;99.90;;;;;;4597612;19;19986;-34
2022/06/30 01:15:45;;;;;;;;;;;21.80;99.90;;;;;;4599962;19;19907;-32
2022/06/30 01:17:16;;;;;;;;;;;21.80;99.90;;;;;;4601357;19;19914;-34
2022/06/30 01:18:47;;;;;;;;;;;21.80;99.90;;;;;;4601430;19;19919;-37
2022/06/30 01:20:24;;;;;;;;;;;21.80;99.90;;;;;;4601219;19;19914;-35
2022/06/30 01:22:13;;;;;;;;;;;21.80;99.90;;;;;;4600433;19;19919;-32
2022/06/30 01:23:44;;;;;;;;;;;21.80;99.90;;;;;;4601719;19;19907;-33
2022/06/30 01:25:15;;;;;;;;;;;21.90;99.90;;;;;;4602031;19;20282;-32
2022/06/30 01:26:46;;;;;;;;;;;21.90;99.90;;;;;;4601794;19;19922;-38
2022/06/30 01:28:17;;;;;;;;;;;21.90;99.90;;;;;;4601603;19;19930;-34
2022/06/30 01:29:50;;;;;;;;;;;21.90;99.90;;;;;;4601843;19;19978;-31
2022/06/30 01:31:23;;;;;;;;;;;21.90;99.90;;;;;;4601504;19;19915;-33
2022/06/30 01:32:54;;;;;;;;;;;21.90;99.90;;;;;;4601425;19;20011;-35
2022/06/30 01:34:25;;;;;;;;;;;21.90;99.90;;;;;;4602102;19;19915;-33
2022/06/30 01:35:56;;;;;;;;;;;21.90;99.90;;;;;;4601997;19;19914;-38
2022/06/30 01:37:27;;;;;;;;;;;21.90;99.90;;;;;;4601413;19;19913;-31
2022/06/30 01:38:59;;;;;;;;;;;22.00;99.90;;;;;;4599937;19;19978;-31
2022/06/30 01:40:31;;;;;;;;;;;22.00;99.90;;;;;;4601209;19;19919;-30
2022/06/30 01:42:02;;;;;;;;;;;21.90;99.90;;;;;;4601516;19;20335;-38
2022/06/30 01:43:33;;;;;;;;;;;22.00;99.90;;;;;;4600268;19;19914;-35
2022/06/30 01:45:04;;;;;;;;;;;22.00;99.90;;;;;;4601097;19;19941;-32
2022/06/30 01:46:35;;;;;;;;;;;22.00;99.90;;;;;;4601423;19;19952;-39
2022/06/30 01:48:06;;;;;;;;;;;22.00;99.90;;;;;;4601287;19;19919;-32
2022/06/30 01:49:37;;;;;;;;;;;22.00;99.90;;;;;;4600036;19;20292;-36
2022/06/30 01:51:08;;;;;;;;;;;22.00;99.90;;;;;;4600765;19;19981;-36
2022/06/30 01:52:39;;;;;;;;;;;22.00;99.90;;;;;;4601997;19;20321;-34
2022/06/30 01:54:10;;;;;;;;;;;22.00;99.90;;;;;;4600899;19;19907;-34
2022/06/30 01:55:41;;;;;;;;;;;22.00;99.90;;;;;;4601510;19;19911;-33
2022/06/30 01:57:12;;;;;;;;;;;22.00;99.90;;;;;;4601146;19;20253;-38
2022/06/30 01:58:43;;;;;;;;;;;22.00;99.90;;;;;;4601454;19;19910;-35
2022/06/30 02:00:15;;;;;;;;;;;22.00;99.90;;;;;;4600807;19;19918;-36
2022/06/30 02:01:46;;;;;;;;;;;22.00;99.90;;;;;;4601088;19;19914;-32
2022/06/30 02:03:17;;;;;;;;;;;22.00;99.90;;;;;;4601173;19;19918;-36
2022/06/30 02:04:49;;;;;;;;;;;22.00;99.90;;;;;;4600603;19;20244;-34
2022/06/30 02:06:20;;;;;;;;;;;22.00;99.90;;;;;;4601098;19;19923;-36
2022/06/30 02:07:51;;;;;;;;;;;22.00;99.90;;;;;;4599729;19;19915;-37
2022/06/30 02:09:22;;;;;;;;;;;22.00;99.90;;;;;;4600522;19;19918;-30
2022/06/30 02:10:53;;;;;;;;;;;22.00;99.90;;;;;;4600645;19;20352;-36
2022/06/30 02:14:14;;;;;;;;;;;22.00;99.90;;;;;;4600969;19;19911;-36
2022/06/30 02:15:45;;;;;;;;;;;22.00;99.90;;;;;;4601399;19;19919;-35
2022/06/30 02:17:16;;;;;;;;;;;22.10;99.90;;;;;;4600653;19;19918;-36
2022/06/30 02:18:47;;;;;;;;;;;22.10;99.90;;;;;;4600896;19;19953;-30
2022/06/30 02:20:21;;;;;;;;;;;22.10;99.90;;;;;;4599547;19;19979;-34
2022/06/30 02:21:52;;;;;;;;;;;22.00;99.90;;;;;;4600583;19;19915;-33
2022/06/30 02:23:23;;;;;;;;;;;22.00;99.90;;;;;;4600481;19;19918;-38
2022/06/30 02:24:54;;;;;;;;;;;22.00;99.90;;;;;;4600532;19;20258;-33
2022/06/30 02:26:25;;;;;;;;;;;22.00;99.90;;;;;;4599624;19;20374;-36
2022/06/30 02:27:56;;;;;;;;;;;22.00;99.90;;;;;;4601088;19;19919;-31
2022/06/30 02:29:27;;;;;;;;;;;22.00;99.90;;;;;;4600415;19;20352;-32
2022/06/30 02:30:58;;;;;;;;;;;22.00;99.90;;;;;;4600840;19;19915;-33
2022/06/30 02:32:29;;;;;;;;;;;22.00;99.90;;;;;;4601059;19;19914;-32
2022/06/30 02:34:00;;;;;;;;;;;22.10;99.90;;;;;;4600208;19;20400;-37
2022/06/30 02:35:31;;;;;;;;;;;22.00;99.90;;;;;;4600382;19;19911;-33
2022/06/30 02:37:02;;;;;;;;;;;22.00;99.90;;;;;;4600575;19;19923;-37
2022/06/30 02:38:33;;;;;;;;;;;22.00;99.90;;;;;;4600053;19;19928;-37
2022/06/30 02:40:05;;;;;;;;;;;22.00;99.90;;;;;;4600291;19;19944;-34
2022/06/30 02:41:35;;;;;;;;;;;22.00;99.90;;;;;;4599289;19;19921;-32
2022/06/30 02:43:07;;;;;;;;;;;22.10;99.90;;;;;;4600095;19;20354;-40
2022/06/30 02:44:38;;;;;;;;;;;22.10;99.90;;;;;;4600502;19;19911;-31
2022/06/30 02:46:09;;;;;;;;;;;22.10;99.90;;;;;;4599282;19;19978;-31
2022/06/30 02:47:41;;;;;;;;;;;22.00;99.90;;;;;;4600142;19;19914;-36
2022/06/30 02:49:11;;;;;;;;;;;22.10;99.90;;;;;;4600365;19;19919;-38
2022/06/30 02:50:44;;;;;;;;;;;22.10;99.90;;;;;;4600899;19;20360;-36
2022/06/30 02:52:16;;;;;;;;;;;22.10;99.90;;;;;;4600109;19;19915;-32
2022/06/30 02:53:47;;;;;;;;;;;22.10;99.90;;;;;;4600527;19;19913;-31
2022/06/30 02:55:17;;;;;;;;;;;22.10;99.90;;;;;;4601067;19;19918;-31
2022/06/30 02:56:49;;;;;;;;;;;22.10;99.90;;;;;;4599999;19;19994;-34
2022/06/30 02:58:20;;;;;;;;;;;22.10;99.90;;;;;;4599183;19;20009;-34
2022/06/30 02:59:51;;;;;;;;;;;22.10;99.90;;;;;;4599730;19;19915;-34
2022/06/30 03:01:22;;;;;;;;;;;22.10;99.90;;;;;;4598007;19;19967;-36
2022/06/30 03:02:54;;;;;;;;;;;22.00;99.90;;;;;;4599586;19;19923;-37
2022/06/30 03:04:26;;;;;;;;;;;22.10;99.90;;;;;;4600229;19;19915;-36
2022/06/30 03:05:56;;;;;;;;;;;22.10;99.90;;;;;;4600506;19;20262;-36
2022/06/30 03:07:27;;;;;;;;;;;22.10;99.90;;;;;;4600103;19;19970;-34
2022/06/30 03:08:58;;;;;;;;;;;22.00;99.90;;;;;;4599792;19;20325;-39
2022/06/30 03:10:29;;;;;;;;;;;22.10;99.90;;;;;;4600456;19;19978;-36
2022/06/30 03:12:00;;;;;;;;;;;22.10;99.90;;;;;;4598638;19;19938;-34
2022/06/30 03:13:31;;;;;;;;;;;22.10;99.90;;;;;;4599252;19;20252;-37
2022/06/30 03:15:02;;;;;;;;;;;22.10;99.90;;;;;;4599993;19;19923;-32
2022/06/30 03:16:34;;;;;;;;;;;22.00;99.90;;;;;;4598940;19;20364;-30
2022/06/30 03:18:04;;;;;;;;;;;22.10;99.90;;;;;;4599412;19;19921;-37
2022/06/30 03:19:35;;;;;;;;;;;22.00;99.90;;;;;;4599670;19;20321;-31
2022/06/30 03:21:07;;;;;;;;;;;22.10;99.90;;;;;;4599360;19;19944;-29
2022/06/30 03:22:38;;;;;;;;;;;22.00;99.90;;;;;;4599746;19;20296;-38
2022/06/30 03:24:09;;;;;;;;;;;22.10;99.90;;;;;;4600206;19;19974;-34
2022/06/30 03:25:40;;;;;;;;;;;22.10;99.90;;;;;;4599461;19;19988;-32
2022/06/30 03:27:11;;;;;;;;;;;22.10;99.90;;;;;;4599726;19;19922;-31
2022/06/30 03:28:42;;;;;;;;;;;22.00;99.90;;;;;;4600176;19;19922;-31
2022/06/30 03:30:13;;;;;;;;;;;22.10;99.90;;;;;;4599425;19;19911;-34
2022/06/30 03:31:44;;;;;;;;;;;22.10;99.90;;;;;;4599608;19;19926;-35
2022/06/30 03:33:15;;;;;;;;;;;22.10;99.90;;;;;;4599584;19;19929;-32
2022/06/30 03:34:46;;;;;;;;;;;22.10;99.90;;;;;;4600120;19;19937;-33
2022/06/30 03:36:17;;;;;;;;;;;22.00;99.90;;;;;;4599289;19;19922;-31
2022/06/30 03:37:48;;;;;;;;;;;22.00;99.90;;;;;;4596819;19;19922;-32
2022/06/30 03:39:19;;;;;;;;;;;22.10;99.90;;;;;;4598439;19;19925;-31
2022/06/30 03:40:50;;;;;;;;;;;22.00;99.90;;;;;;4599055;19;19911;-31
2022/06/30 03:42:21;;;;;;;;;;;22.10;99.90;;;;;;4598000;19;19950;-31
2022/06/30 03:43:52;;;;;;;;;;;22.00;99.90;;;;;;4599128;19;19919;-32
2022/06/30 03:45:23;;;;;;;;;;;22.10;99.90;;;;;;4599470;19;19919;-31
2022/06/30 03:46:54;;;;;;;;;;;22.10;99.90;;;;;;4599095;19;19970;-39
2022/06/30 03:48:25;;;;;;;;;;;22.10;99.90;;;;;;4599262;19;19918;-39
2022/06/30 03:49:56;;;;;;;;;;;22.10;99.90;;;;;;4599292;19;19922;-34
2022/06/30 03:51:27;;;;;;;;;;;22.10;99.90;;;;;;4600058;19;20253;-32
2022/06/30 03:52:58;;;;;;;;;;;22.10;99.90;;;;;;4597900;19;19918;-30
2022/06/30 03:54:29;;;;;;;;;;;22.10;99.90;;;;;;4598725;19;19907;-33
2022/06/30 03:56:00;;;;;;;;;;;22.10;99.90;;;;;;4598903;19;20303;-32
2022/06/30 03:57:31;;;;;;;;;;;22.10;99.90;;;;;;4599653;19;19915;-32
2022/06/30 03:59:02;;;;;;;;;;;22.10;99.90;;;;;;4598992;19;20348;-39
2022/06/30 04:00:34;;;;;;;;;;;22.10;99.90;;;;;;4598783;19;19919;-35
2022/06/30 04:02:06;;;;;;;12.88;11.68;;;22.10;99.90;;;;;;4596863;19;19941;-36
2022/06/30 04:03:37;;;;;;;12.18;11.00;;;22.20;99.90;;;;;;4589403;19;20021;-33
2022/06/30 04:05:08;;;;;;;;;;;22.20;99.90;;;;;;4590634;19;20037;-35
2022/06/30 04:06:40;;;;;;;12.15;10.95;;;22.20;99.90;;;;;;4590881;19;19941;-35
2022/06/30 04:08:11;;;;;;;11.95;10.75;;;22.30;99.90;;;;;;4591085;19;20364;-38
2022/06/30 04:09:42;;;;;;;;;;;22.40;99.90;;;;;;4588490;19;20066;-33
2022/06/30 04:11:14;;;;;;;12.02;10.60;;;22.40;99.90;;;;;;4589366;19;19938;-40
2022/06/30 04:12:45;;;;;;;11.45;10.35;;;22.40;99.90;;;;;;4590216;19;20430;-37
2022/06/30 04:14:21;;;;;;;12.38;11.18;;;22.40;99.90;;;;;;4590335;19;20054;-32
2022/06/30 04:15:55;;;;;;;13.80;12.60;;;22.30;99.90;;;;;;4589799;19;20018;-35
2022/06/30 04:17:26;;;;;;;14.75;13.45;;;22.10;99.90;;;;;;4589799;19;20014;-35
2022/06/30 04:18:58;;;;;;;18.00;16.20;;;21.70;99.90;;;;;;4590473;19;20006;-34
2022/06/30 04:20:29;;;;;;;17.60;16.00;;;21.40;99.90;;;;;;4590305;19;20058;-38
2022/06/30 04:22:00;;;;;;;17.80;16.10;;;21.10;99.90;;;;;;4589807;19;20464;-32
2022/06/30 04:23:31;;;;;;;16.95;15.30;;;20.90;99.90;;;;;;4590116;19;20353;-41
2022/06/30 04:25:03;;;;;;;17.13;15.55;;;20.70;99.90;;;;;;4590594;19;20006;-33
2022/06/30 04:26:34;;;;;;;18.67;16.98;;;20.70;99.90;;;;;;4590324;19;20014;-32
2022/06/30 04:28:05;;;;;;;17.02;15.43;;;20.60;99.90;;;;;;4589703;19;20019;-33
2022/06/30 04:29:37;;;;;;;17.42;15.82;;;20.50;99.90;;;;;;4590218;19;20018;-35
2022/06/30 04:32:57;;;;;;;17.55;16.00;;;20.40;99.90;;;;;;4588512;19;20048;-33
2022/06/30 04:34:29;;;;;;;17.58;15.98;;;20.40;99.90;;;;;;4589391;19;20417;-32
2022/06/30 04:36:00;;;;;;;18.63;16.83;;;20.30;99.90;;;;;;4590027;19;20025;-32
2022/06/30 04:37:31;;;;;;;19.02;17.15;;;20.30;99.90;;;;;;4589765;19;20471;-31
2022/06/30 04:39:02;;;;;;;18.45;16.42;;;20.30;99.90;;;;;;4588960;19;20023;-32
2022/06/30 04:42:24;;;;;;;16.10;14.60;;;20.50;99.90;;;;;;4587138;19;20017;-35
2022/06/30 04:43:56;;;;;;;21.85;19.90;;;20.80;99.90;;;;;;4589123;19;20023;-32
2022/06/30 04:45:27;;;;;;;;;;;19.50;99.90;;;;;;4590651;19;20499;-32
2022/06/30 04:46:58;;;;;;;;;;;18.70;99.90;;;;;;4590199;19;20004;-39
2022/06/30 04:48:29;;;;;;;;;;;18.40;99.90;;;;;;4589120;19;19998;-36
2022/06/30 04:50:00;;;;;;;;;;;18.30;99.90;;;;;;4594804;19;19922;-32
2022/06/30 04:51:31;;;;;;;;;;;18.30;99.90;;;;;;4594664;19;19923;-34
2022/06/30 04:53:02;;;;;;;;;;;18.30;99.90;;;;;;4593477;19;19915;-36
2022/06/30 04:54:33;;;;;;;;;;;18.30;99.90;;;;;;4594394;19;19919;-32
2022/06/30 04:56:05;;;;;;;;;;;18.30;99.90;;;;;;4594992;19;19922;-36
2022/06/30 04:57:36;;;;;;;;;;;18.30;99.90;;;;;;4594180;19;19919;-37
2022/06/30 04:59:07;;;;;;;;;;;18.30;99.90;;;;;;4589544;19;19911;-32
2022/06/30 05:00:39;;;;;;;;;;;18.40;99.90;;;;;;4590750;19;19926;-33
2022/06/30 05:02:10;;;;;;;;;;;18.40;99.90;;;;;;4594318;19;19921;-33
2022/06/30 05:03:41;;;;;;;;;;;18.40;99.90;;;;;;4591246;19;19910;-33
2022/06/30 05:05:12;;;;;;;;;;;18.40;99.90;;;;;;4592487;19;20372;-34
2022/06/30 05:06:43;;;;;;;;;;;18.40;99.90;;;;;;4594013;19;20372;-35
2022/06/30 05:08:14;;;;;;;;;;;18.40;99.90;;;;;;4592725;19;19914;-31
2022/06/30 05:09:45;;;;;;;;;;;18.40;99.90;;;;;;4592280;19;20245;-31
2022/06/30 05:11:16;;;;;;;;;;;18.40;99.90;;;;;;4593263;19;19951;-30
2022/06/30 05:12:47;;;;;;;;;;;18.40;99.90;;;;;;4594211;19;20346;-33
2022/06/30 05:14:18;;;;;;;;;;;18.40;99.90;;;;;;4593813;19;19914;-32
2022/06/30 05:15:49;;;;;;;;;;;18.40;99.90;;;;;;4594054;19;19922;-33
2022/06/30 05:17:20;;;;;;;;;;;18.40;99.90;;;;;;4594516;19;19919;-30
2022/06/30 05:18:51;;;;;;;;;;;18.40;99.90;;;;;;4594632;19;19918;-35
2022/06/30 05:20:22;;;;;;;;;;;18.50;99.90;;;;;;4593702;19;19921;-32
2022/06/30 05:21:53;;;;;;;;;;;18.50;99.90;;;;;;4593868;19;19922;-31
2022/06/30 05:23:24;;;;;;;;;;;18.50;99.90;;;;;;4592871;19;19914;-31
2022/06/30 05:26:50;;;;;;;;;;;18.50;99.90;;;;;;4591509;19;19990;-31
2022/06/30 05:28:21;;;;;;;;;;;18.50;99.90;;;;;;4591627;19;19911;-35
2022/06/30 05:29:52;;;;;;;;;;;18.50;99.90;;;;;;4591894;19;20256;-33
2022/06/30 05:31:23;;;;;;;;;;;18.50;99.90;;;;;;4592179;19;19982;-38
2022/06/30 05:32:54;;;;;;;;;;;18.50;99.90;;;;;;4591411;19;19918;-37
2022/06/30 05:34:25;;;;;;;;;;;18.50;99.90;;;;;;4591466;19;19927;-34
2022/06/30 05:35:57;;;;;;;;;;;18.50;99.90;;;;;;4591213;19;19915;-39
2022/06/30 05:37:28;;;;;;;;;;;18.50;99.90;;;;;;4591995;19;19985;-33
2022/06/30 05:38:59;;;;;;;;;;;18.60;99.90;;;;;;4589518;19;19923;-32
2022/06/30 05:40:30;;;;;;;;;;;18.60;99.90;;;;;;4590867;19;19918;-33
2022/06/30 05:42:01;;;;;;;;;;;18.60;99.90;;;;;;4594090;19;19922;-32
2022/06/30 05:43:32;;;;;;;;;;;18.60;99.90;;;;;;4590735;19;19941;-38
2022/06/30 05:45:03;;;;;;;;;;;18.70;99.90;;;;;;4590636;19;19952;-32
2022/06/30 05:46:36;;;;;;;;;;;18.70;99.90;;;;;;4590967;19;19925;-34
2022/06/30 05:48:07;;;;;;;;;;;18.70;99.90;;;;;;4591763;19;19914;-38
2022/06/30 05:49:38;;;;;;;;;;;18.70;99.90;;;;;;4590898;19;19914;-32
2022/06/30 05:51:09;;;;;;;;;;;18.70;99.90;;;;;;4591002;19;19911;-34
2022/06/30 05:52:41;;;;;;;;;;;18.70;99.90;;;;;;4591241;19;19983;-36
2022/06/30 05:54:12;;;;;;;;;;;18.70;99.90;;;;;;4591534;19;19915;-35
2022/06/30 05:55:43;;;;;;;;;;;18.80;99.90;;;;;;4590946;19;19990;-37
2022/06/30 05:57:14;;;;;;;;;;;18.80;99.90;;;;;;4590642;19;19918;-32
2022/06/30 05:58:45;;;;;;;;;;;18.80;99.90;;;;;;4591627;19;19918;-33
2022/06/30 06:00:17;;;;;;;;;;;18.80;99.90;;;;;;4589325;19;19915;-32
2022/06/30 06:01:48;;;;;;;;;;;18.80;99.90;;;;;;4589939;19;19918;-34
2022/06/30 06:03:20;;;;;;;;;;;18.80;99.90;;;;;;4590135;19;20382;-34
2022/06/30 06:04:50;;;;;;;;;;;18.80;99.90;;;;;;4592138;19;19982;-37
2022/06/30 06:06:21;;;;;;;;;;;18.80;99.90;;;;;;4592669;19;19914;-36
2022/06/30 06:07:54;;;;;;;;;;;18.90;99.90;;;;;;4591186;19;19934;-34
2022/06/30 06:09:25;;;;;;;;;;;18.90;99.90;;;;;;4591363;19;19926;-34
2022/06/30 06:10:56;;;;;;;;;;;18.90;99.90;;;;;;4594431;19;19933;-34
2022/06/30 06:12:27;;;;;;;;;;;18.90;99.90;;;;;;4593502;19;19947;-34
2022/06/30 06:13:58;;;;;;;;;;;18.90;99.90;;;;;;4592939;19;19922;-35
2022/06/30 06:15:29;;;;;;;;;;;19.00;99.90;;;;;;4592747;19;19918;-37
2022/06/30 06:17:00;;;;;;;;;;;19.00;99.90;;;;;;4592718;19;19938;-35
2022/06/30 06:18:31;;;;;;;;;;;18.90;99.90;;;;;;4592138;19;19926;-38
2022/06/30 06:20:02;;;;;;;;;;;19.00;99.90;;;;;;4591311;19;19919;-37
2022/06/30 06:21:36;;;;;;;;;;;19.00;99.90;;;;;;4590508;19;19919;-34
2022/06/30 06:23:06;;;;;;;;;;;19.10;99.90;;;;;;4591279;19;19918;-34
2022/06/30 06:24:37;;;;;;;;;;;19.10;99.90;;;;;;4589676;19;19939;-35
2022/06/30 06:26:08;;;;;;;;;;;19.00;99.90;;;;;;4592190;19;19974;-34
2022/06/30 06:27:39;;;;;;;;;;;19.00;99.90;;;;;;4593270;19;19914;-35
2022/06/30 06:29:10;;;;;;;;;;;19.10;99.90;;;;;;4591028;19;19918;-33
2022/06/30 06:30:41;;;;;;;;;;;19.10;99.90;;;;;;4590825;19;19923;-36
2022/06/30 06:32:13;;;;;;;;;;;19.10;99.90;;;;;;4591184;19;19986;-34
2022/06/30 06:33:45;;;;;;;;;;;19.10;99.90;;;;;;4591190;19;19922;-43
2022/06/30 06:35:16;;;;;;;;;;;19.10;99.90;;;;;;4592745;19;19914;-33
2022/06/30 06:36:47;;;;;;;;;;;19.10;99.90;;;;;;4592829;19;20361;-35
2022/06/30 06:38:19;;;;;;;;;;;19.20;99.90;;;;;;4591828;19;19914;-41
2022/06/30 06:39:50;;;;;;;;;;;19.20;99.90;;;;;;4590957;19;19915;-34
2022/06/30 06:41:21;;;;;;;;;;;19.20;99.90;;;;;;4589758;19;19919;-36
2022/06/30 06:42:52;;;;;;;;;;;19.20;99.90;;;;;;4591585;19;20265;-37
2022/06/30 06:44:23;;;;;;;;;;;19.20;99.90;;;;;;4591265;19;20312;-40
2022/06/30 06:45:54;;;;;;;;;;;19.20;99.90;;;;;;4590417;19;19919;-42
2022/06/30 06:47:25;;;;;;;;;;;19.30;99.90;;;;;;4590276;19;19943;-36
2022/06/30 06:48:59;;;;;;;;;;;19.30;99.90;;;;;;4590039;19;19962;-37
2022/06/30 06:50:30;;;;;;;;;;;19.30;99.90;;;;;;4593706;19;20260;-33
2022/06/30 06:52:01;;;;;;;;;;;19.30;99.90;;;;;;4592857;19;19911;-37
2022/06/30 06:53:32;;;;;;;;;;;19.30;99.90;;;;;;4592355;19;20270;-35
2022/06/30 06:55:04;;;;;;;;;;;19.30;99.90;;;;;;4591856;19;20595;-43
2022/06/30 06:56:35;;;;;;;;;;;19.40;99.90;;;;;;4591778;19;19918;-34
2022/06/30 06:58:08;;;;;;;;;;;19.40;99.90;;;;;;4591009;19;20256;-36
2022/06/30 06:59:39;;;;;;;;;;;19.40;99.90;;;;;;4590549;19;19922;-36
2022/06/30 07:01:10;;;;;;;;;;;19.40;99.90;;;;;;4590224;19;19993;-37
2022/06/30 07:02:41;;;;;;;;;;;19.40;99.90;;;;;;4590211;19;19918;-39
2022/06/30 07:04:12;;;;;;;;;;;19.40;99.90;;;;;;4591540;19;19922;-37
2022/06/30 07:10:30;;;;;;;;;;;19.40;99.90;;;;;;4592714;19;19937;-33
2022/06/30 07:12:02;;;;;;;;;;;19.50;99.90;;;;;;4589626;19;19971;-42
2022/06/30 07:13:35;;;;;;;;;;;19.50;99.90;;;;;;4591084;19;20412;-35
2022/06/30 07:15:06;;;;;;;;;;;19.50;99.90;;;;;;4590046;19;19921;-39
2022/06/30 07:16:37;;;;;;;;;;;19.50;99.90;;;;;;4589764;19;19910;-37
2022/06/30 07:18:08;;;;;;;;;;;19.50;99.90;;;;;;4589775;19;19915;-38
2022/06/30 07:19:39;;;;;;;;;;;19.60;99.90;;;;;;4590634;19;19923;-35
2022/06/30 07:21:10;;;;;;;;;;;19.60;99.90;;;;;;4591335;19;19934;-37
2022/06/30 07:22:41;;;;;;;;;;;19.60;99.90;;;;;;4590065;19;19927;-34
2022/06/30 07:24:12;;;;;;;;;;;19.60;99.90;;;;;;4591573;19;19982;-40
2022/06/30 07:25:43;;;;;;;;;;;19.60;99.90;;;;;;4591089;19;19923;-34
2022/06/30 07:27:14;;;;;;;;;;;19.70;99.90;;;;;;4590014;19;19935;-41
2022/06/30 07:28:45;;;;;;;;;;;19.70;99.90;;;;;;4589643;19;19918;-38
2022/06/30 07:30:16;;;;;;;;;;;19.70;99.90;;;;;;4590304;19;19915;-35
2022/06/30 07:31:47;;;;;;;;;;;19.70;99.90;;;;;;4592067;19;19958;-38
2022/06/30 07:33:18;;;;;;;;;;;19.70;99.90;;;;;;4589865;19;20383;-34
2022/06/30 07:34:49;;;;;;;;;;;19.80;99.90;;;;;;4591196;19;19915;-35
2022/06/30 07:36:20;;;;;;;;;;;19.80;99.90;;;;;;4591455;19;19922;-38
2022/06/30 07:37:51;;;;;;;;;;;19.80;99.90;;;;;;4590081;19;19919;-39
2022/06/30 07:39:22;;;;;;;;;;;19.80;99.90;;;;;;4588808;19;19922;-33
2022/06/30 07:40:57;;;;;;;;;;;19.80;99.90;;;;;;4587229;19;20212;-35
2022/06/30 07:42:29;;;;;;;;;;;19.90;99.90;;;;;;4590096;19;20310;-35
2022/06/30 07:44:01;;;;;;;;;;;19.90;99.90;;;;;;4589323;19;20001;-35
2022/06/30 07:45:32;;;;;;;;;;;19.90;99.90;;;;;;4589177;19;20379;-36
2022/06/30 07:47:03;;;;;;;;;;;19.90;99.90;;;;;;4591915;19;19915;-33
2022/06/30 07:48:34;;;;;;;;;;;19.90;99.90;;;;;;4590413;19;20337;-35
2022/06/30 07:50:05;;;;;;;;;;;20.00;99.90;;;;;;4590936;19;19918;-42
2022/06/30 07:51:36;;;;;;;;;;;20.00;99.90;;;;;;4590604;19;20265;-39
2022/06/30 07:53:08;;;;;;;;;;;20.00;99.90;;;;;;4591250;19;20245;-40
2022/06/30 07:54:39;;;;;;;;;;;20.00;99.90;;;;;;4590474;19;19974;-35
2022/06/30 07:56:10;;;;;;;;;;;20.00;99.90;;;;;;4590968;19;19914;-34
2022/06/30 07:57:42;;;;;;;;;;;20.00;99.90;;;;;;4590874;19;19945;-35
2022/06/30 07:59:13;;;;;;;;;;;20.00;99.90;;;;;;4591256;19;19930;-38
2022/06/30 08:00:44;;;;;;;;;;;20.00;99.90;;;;;;4589249;19;19914;-43
2022/06/30 08:02:15;;;;;;;;;;;20.10;99.90;;;;;;4590624;19;19914;-39
2022/06/30 08:03:46;;;;;;;;;;;20.10;99.90;;;;;;4589592;19;19922;-42
2022/06/30 08:05:17;;;;;;;;;;;20.20;99.90;;;;;;4589302;19;20339;-37
2022/06/30 08:06:48;;;;;;;;;;;20.20;99.90;;;;;;4589873;19;19978;-42
2022/06/30 08:08:19;;;;;;;;;;;20.20;99.90;;;;;;4590312;19;20410;-34
2022/06/30 08:09:50;;;;;;;;;;;20.20;99.90;;;;;;4590801;19;20261;-33
2022/06/30 08:11:21;;;;;;;;;;;20.20;99.90;;;;;;4590323;19;19923;-36
2022/06/30 08:12:52;;;;;;;;;;;20.20;99.90;;;;;;4590682;19;19923;-36
2022/06/30 08:14:23;;;;;;;;;;;20.30;99.90;;;;;;4590161;19;20325;-37
2022/06/30 08:15:54;;;;;;;;;;;20.30;99.90;;;;;;4587980;19;19922;-36
2022/06/30 08:17:25;;;;;;;;;;;20.30;99.90;;;;;;4589484;19;19910;-33
2022/06/30 08:18:57;;;;;;;;;;;20.30;99.90;;;;;;4589889;19;20360;-35
2022/06/30 08:20:27;;;;;;;;;;;20.30;99.90;;;;;;4589089;19;19927;-35
2022/06/30 08:21:58;;;;;;;;;;;20.30;99.90;;;;;;4589811;19;20345;-33
2022/06/30 08:23:29;;;;;;;;;;;20.30;99.90;;;;;;4590228;19;19919;-33
2022/06/30 08:25:01;;;;;;;;;;;20.30;99.90;;;;;;4595105;19;19923;-34
2022/06/30 08:26:32;;;;;;;;;;;20.40;99.90;;;;;;4595714;19;20347;-34
2022/06/30 08:28:05;;;;;;;;;;;20.40;99.90;;;;;;4595049;19;20328;-34
2022/06/30 08:29:36;;;;;;;;;;;20.40;99.90;;;;;;4595004;19;19911;-36
2022/06/30 08:31:08;;;;;;;;;;;20.40;99.90;;;;;;4595361;19;19982;-39
2022/06/30 08:32:40;;;;;;;;;;;20.50;99.90;;;;;;4596292;19;19930;-33
2022/06/30 08:34:10;;;;;;;;;;;20.50;99.90;;;;;;4593882;19;19915;-36
2022/06/30 08:35:41;;;;;;;;;;;20.50;99.90;;;;;;4594470;19;19922;-36
2022/06/30 08:37:12;;;;;;;;;;;20.50;99.90;;;;;;4594894;19;19988;-36
2022/06/30 08:38:43;;;;;;;;;;;20.50;99.90;;;;;;4594219;19;19934;-39
2022/06/30 08:42:05;;;;;;;;;;;20.60;99.90;;;;;;4593384;19;19927;-34
2022/06/30 08:43:36;;;;;;;;;;;20.60;99.90;;;;;;4592604;19;19922;-34
2022/06/30 08:45:14;;;;;;;;;;;20.60;99.90;;;;;;4595211;19;19919;-38
2022/06/30 08:46:46;;;;;;;;;;;20.60;99.90;;;;;;4594341;19;19915;-33
2022/06/30 08:48:17;;;;;;;;;;;20.60;99.90;;;;;;4594236;19;20309;-34
2022/06/30 08:49:48;;;;;;;;;;;20.60;99.90;;;;;;4594423;19;19943;-37
2022/06/30 08:51:19;;;;;;;;;;;20.70;99.90;;;;;;4593388;19;19922;-39
2022/06/30 08:52:54;;;;;;;;;;;20.70;99.90;;;;;;4594899;19;19914;-34
2022/06/30 08:54:26;;;;;;;;;;;20.70;99.90;;;;;;4594099;19;19919;-39
2022/06/30 08:55:57;;;;;;;;;;;20.70;99.90;;;;;;4594027;19;19926;-33
2022/06/30 08:57:28;;;;;;;;;;;20.80;99.90;;;;;;4593489;19;19922;-36
2022/06/30 08:58:59;;;;;;;;;;;20.80;99.90;;;;;;4593565;19;19923;-34
2022/06/30 09:00:30;;;;;;;;;;;20.80;99.90;;;;;;4591452;19;19929;-41
2022/06/30 09:02:01;;;;;;;;;;;20.90;99.90;;;;;;4593475;19;20244;-33